Time;durP1;ratioP1;P1;durP2;ratioP2;P2;SDS_P1;SDS_P2;PMS_P1;PMS_P2;Temp;Humidity;BMP_temperature;BMP_pressure;BME280_temperature;BME280_humidity;BME280_pressure;Samples;Min_cycle;Max_cycle;Signal;HPM_P1;HPM_P2
2022/01/25 00:24:27;;;;;;;73.20;49.27;;;5.10;99.90;;;;;;5009715;28;20033;-69
2022/01/25 00:27:40;;;;;;;77.53;50.33;;;5.10;99.90;;;;;;5022863;28;20101;-69
2022/01/25 00:32:10;;;;;;;77.07;52.30;;;5.10;99.90;;;;;;5010186;28;20022;-67
2022/01/25 00:34:36;;;;;;;74.80;48.63;;;5.20;99.90;;;;;;5010379;28;20486;-69
2022/01/25 00:37:01;;;;;;;76.57;50.67;;;5.10;99.90;;;;;;5010532;28;20038;-69
2022/01/25 00:39:27;;;;;;;68.87;46.70;;;5.00;99.90;;;;;;5009785;28;20495;-69
2022/01/25 00:41:52;;;;;;;71.23;46.90;;;5.10;99.90;;;;;;5024564;28;20026;-69
2022/01/25 00:44:18;;;;;;;67.80;46.63;;;;;;;;;;5029499;28;20040;-69
2022/01/25 00:46:44;;;;;;;70.07;45.00;;;5.20;99.90;;;;;;5028524;28;20040;-69
2022/01/25 00:49:14;;;;;;;67.87;44.17;;;5.00;99.90;;;;;;5029208;28;20459;-69
2022/01/25 00:56:49;;;;;;;63.87;40.83;;;5.20;99.90;;;;;;5028541;28;20029;-69
2022/01/25 00:59:18;;;;;;;57.40;39.97;;;5.10;99.90;;;;;;5029266;28;20037;-67
2022/01/25 01:01:45;;;;;;;61.17;43.27;;;5.00;99.90;;;;;;5028136;28;20093;-69
2022/01/25 01:04:11;;;;;;;66.87;43.77;;;5.20;99.90;;;;;;5028860;28;20509;-69
2022/01/25 01:06:38;;;;;;;60.60;41.07;;;5.10;99.90;;;;;;5028603;28;20022;-69
2022/01/25 01:09:07;;;;;;;62.90;41.77;;;5.00;99.90;;;;;;5028823;28;20167;-69
2022/01/25 01:11:39;;;;;;;66.50;42.73;;;5.20;99.90;;;;;;5028606;28;20108;-70
2022/01/25 01:17:02;;;;;;;57.00;38.53;;;5.20;99.90;;;;;;5028496;28;20120;-69
2022/01/25 01:30:54;;;;;;;48.95;34.75;;;;;;;;;;5028424;28;20422;-69
2022/01/25 01:36:37;;;;;;;53.33;36.77;;;5.10;99.90;;;;;;5028388;28;20041;-69
2022/01/25 01:43:59;;;;;;;54.20;36.03;;;5.20;99.90;;;;;;5027703;28;20030;-69
2022/01/25 01:46:40;;;;;;;54.07;37.83;;;4.80;99.90;;;;;;5028365;28;20024;-69
2022/01/25 01:49:07;;;;;;;57.10;39.70;;;5.10;99.90;;;;;;5028513;28;20128;-69
2022/01/25 01:51:37;;;;;;;56.83;37.27;;;5.00;99.90;;;;;;5028312;28;20029;-69
2022/01/25 01:54:09;;;;;;;53.60;34.43;;;4.90;99.90;;;;;;5027996;28;20391;-69
2022/01/25 01:56:36;;;;;;;56.53;39.00;;;5.00;99.90;;;;;;5010198;28;20041;-69
2022/01/25 01:59:06;;;;;;;54.47;37.30;;;5.00;99.90;;;;;;5027712;28;20655;-69
2022/01/25 02:01:34;;;;;;;49.30;35.50;;;5.10;99.90;;;;;;5028324;28;20094;-69
2022/01/25 02:04:01;;;;;;;53.10;36.80;;;5.10;99.90;;;;;;5027817;28;20482;-69
2022/01/25 02:06:27;;;;;;;45.73;32.43;;;4.90;99.90;;;;;;5028214;28;20506;-69
2022/01/25 02:08:53;;;;;;;55.30;38.70;;;4.90;99.90;;;;;;5027753;28;20021;-69
2022/01/25 02:11:19;;;;;;;47.40;34.53;;;4.90;99.90;;;;;;5028358;28;20030;-69
2022/01/25 02:13:46;;;;;;;57.07;38.47;;;4.90;99.90;;;;;;5027007;28;20048;-69
2022/01/25 02:16:29;;;;;;;47.60;32.70;;;4.90;99.90;;;;;;5028189;28;20022;-69
2022/01/25 02:24:24;;;;;;;57.27;39.17;;;5.00;99.90;;;;;;5028120;28;20070;-69
2022/01/25 02:26:55;;;;;;;51.13;36.87;;;;;;;;;;5026992;28;20034;-69
2022/01/25 02:29:21;;;;;;;62.20;41.67;;;;;;;;;;5028310;28;20021;-69
2022/01/25 02:31:46;;;;;;;55.07;37.90;;;4.80;99.90;;;;;;5027064;28;20224;-69
2022/01/25 02:34:13;;;;;;;57.67;39.60;;;4.90;99.90;;;;;;5026578;28;20486;-69
2022/01/25 02:36:38;;;;;;;61.00;40.47;;;4.80;99.90;;;;;;5029828;28;20458;-69
2022/01/25 02:39:04;;;;;;;55.00;37.03;;;;;;;;;;5030015;28;20037;-69
2022/01/25 02:41:30;;;;;;;52.10;36.37;;;4.70;99.90;;;;;;5029219;28;20108;-69
2022/01/25 02:43:58;;;;;;;59.73;41.87;;;4.70;99.90;;;;;;5029707;28;20063;-69
2022/01/25 02:49:01;;;;;;;55.23;38.03;;;4.60;99.90;;;;;;5030542;28;20041;-69
2022/01/25 02:51:32;;;;;;;56.20;37.00;;;4.50;99.90;;;;;;5031651;28;20091;-69
2022/01/25 02:53:58;;;;;;;47.20;33.57;;;4.80;99.90;;;;;;5030740;28;20133;-69
2022/01/25 02:56:25;;;;;;;51.83;34.80;;;4.30;99.90;;;;;;5031179;28;20064;-69
2022/01/25 02:58:51;;;;;;;47.20;34.37;;;4.60;99.90;;;;;;5030665;28;20455;-69
2022/01/25 03:01:18;;;;;;;43.47;29.53;;;4.60;99.90;;;;;;5031397;28;20025;-69
2022/01/25 03:03:44;;;;;;;43.70;30.50;;;4.70;99.90;;;;;;5030770;28;20033;-69
2022/01/25 03:06:13;;;;;;;51.47;33.93;;;4.30;99.90;;;;;;5012871;28;20021;-69
2022/01/25 03:08:39;;;;;;;57.57;37.20;;;;;;;;;;5012934;28;20120;-69
2022/01/25 03:11:04;;;;;;;49.93;34.57;;;4.80;99.90;;;;;;5012760;28;20403;-69
2022/01/25 03:13:36;;;;;;;52.07;35.30;;;;;;;;;;5030815;28;20053;-69
2022/01/25 03:16:06;;;;;;;45.37;33.27;;;4.70;99.90;;;;;;5030928;28;20017;-69
2022/01/25 03:21:18;;;;;;;64.73;42.13;;;4.60;99.90;;;;;;5030478;28;20021;-69
2022/01/25 03:23:45;;;;;;;59.20;39.13;;;4.60;99.90;;;;;;5030435;28;20097;-69
2022/01/25 03:26:11;;;;;;;64.33;41.73;;;4.60;99.90;;;;;;5012570;28;20083;-69
2022/01/25 03:28:36;;;;;;;55.67;37.53;;;4.70;99.90;;;;;;5012616;28;20136;-69
2022/01/25 03:31:02;;;;;;;58.43;38.50;;;;;;;;;;5030553;28;20431;-69
2022/01/25 03:33:28;;;;;;;58.93;36.77;;;4.60;99.90;;;;;;5030486;28;20033;-69
2022/01/25 03:35:53;;;;;;;51.63;34.90;;;4.40;99.90;;;;;;5030016;28;20470;-69
2022/01/25 03:38:19;;;;;;;68.80;41.97;;;;;;;;;;5030740;28;20026;-69
2022/01/25 03:40:46;;;;;;;68.90;43.77;;;4.50;99.90;;;;;;5029596;28;20071;-69
2022/01/25 03:43:14;;;;;;;64.60;40.63;;;4.60;99.90;;;;;;5012488;28;20549;-69
2022/01/25 03:45:42;;;;;;;60.73;39.13;;;4.60;99.90;;;;;;5029514;28;20025;-69
2022/01/25 03:50:36;;;;;;;74.67;47.93;;;;;;;;;;5030174;28;20120;-69
2022/01/25 03:53:02;;;;;;;65.07;40.73;;;4.50;99.90;;;;;;5030066;28;20040;-69
2022/01/25 03:55:28;;;;;;;68.17;41.97;;;;;;;;;;5029375;28;20037;-69
2022/01/25 03:57:53;;;;;;;60.77;39.07;;;4.60;99.90;;;;;;5029664;28;20056;-69
2022/01/25 04:00:19;;;;;;;64.80;40.37;;;;;;;;;;5012211;28;20429;-69
2022/01/25 04:02:52;;;;;;;77.67;46.10;;;4.50;99.90;;;;;;5029786;28;20037;-70
2022/01/25 04:05:24;;;;;;;85.20;48.37;;;4.90;99.90;;;;;;5030237;28;20524;-69
2022/01/25 04:07:52;;;;;;;68.97;43.67;;;4.60;99.90;;;;;;5029581;28;20044;-69
2022/01/25 04:10:19;;;;;;;75.73;46.47;;;4.60;99.90;;;;;;5029575;28;20030;-69
2022/01/25 04:12:48;;;;;;;70.90;41.37;;;5.00;99.90;;;;;;5033446;28;20536;-69
2022/01/25 04:15:13;;;;;;;71.37;42.77;;;4.30;99.90;;;;;;5029532;28;20041;-69
2022/01/25 04:17:42;;;;;;;67.67;41.77;;;4.70;99.90;;;;;;5029321;28;20418;-69
2022/01/25 04:25:19;;;;;;;60.40;38.30;;;;;;;;;;5030191;28;20064;-69
2022/01/25 04:27:44;;;;;;;60.33;37.67;;;5.10;99.90;;;;;;5029250;28;20377;-69
2022/01/25 04:30:10;;;;;;;65.67;38.90;;;4.60;99.90;;;;;;5029556;28;20049;-69
2022/01/25 04:49:21;;;;;;;68.70;40.90;;;4.70;99.90;;;;;;5029602;28;20057;-68
2022/01/25 04:52:01;;;;;;;67.53;39.30;;;4.70;99.90;;;;;;5028175;28;20029;-68
2022/01/25 04:57:33;;;;;;;69.95;42.40;;;4.70;99.90;;;;;;5028647;28;20037;-68
2022/01/25 05:00:06;;;;;;;76.73;44.40;;;;;;;;;;5028556;28;20120;-68
2022/01/25 05:05:11;;;;;;;72.47;43.87;;;4.60;99.90;;;;;;5028838;28;20029;-68
2022/01/25 05:07:46;;;;;;;68.47;42.37;;;;;;;;;;5028192;28;20427;-68
2022/01/25 05:10:12;;;;;;;68.07;41.20;;;4.60;99.90;;;;;;5029074;28;20049;-67
2022/01/25 05:12:50;;;;;;;67.63;40.57;;;;;;;;;;5028408;28;20064;-67
2022/01/25 05:17:46;;;;;;;73.60;42.83;;;4.50;99.90;;;;;;5029706;28;20347;-67
2022/01/25 05:22:56;;;;;;;66.30;39.17;;;4.50;99.90;;;;;;5028767;28;20099;-67
2022/01/25 05:25:22;;;;;;;62.43;38.73;;;;;;;;;;5029326;28;20390;-67
2022/01/25 05:27:48;;;;;;;67.97;41.27;;;4.50;99.90;;;;;;5028928;28;20034;-67
2022/01/25 05:30:13;;;;;;;64.47;39.90;;;4.50;99.90;;;;;;5024666;28;20087;-67
2022/01/25 05:32:39;;;;;;;79.13;43.67;;;4.50;99.90;;;;;;5009946;28;20076;-67
2022/01/25 05:35:06;;;;;;;61.87;36.50;;;4.50;99.90;;;;;;5009379;28;20428;-67
2022/01/25 05:37:35;;;;;;;78.57;46.17;;;4.40;99.90;;;;;;5009386;28;20156;-67
2022/01/25 05:40:01;;;;;;;78.10;46.10;;;4.60;99.90;;;;;;4992199;28;20026;-67
2022/01/25 05:43:50;;;;;;;75.83;42.67;;;;;;;;;;5009468;28;20033;-67
2022/01/25 05:45:38;;;;;;;71.13;41.27;;;4.60;99.90;;;;;;5020620;28;20025;-67
2022/01/25 05:48:03;;;;;;;73.17;42.00;;;4.40;99.90;;;;;;5028522;28;20037;-67
2022/01/25 05:50:29;;;;;;;65.00;39.03;;;;;;;;;;5027832;28;20033;-67
2022/01/25 05:52:55;;;;;;;71.57;42.13;;;4.10;99.90;;;;;;5028531;28;20036;-67
2022/01/25 05:55:20;;;;;;;85.90;48.20;;;4.90;99.90;;;;;;5028649;28;20045;-67
2022/01/25 05:57:47;;;;;;;71.97;42.20;;;4.50;99.90;;;;;;5010998;28;20042;-67
2022/01/25 06:00:13;;;;;;;70.80;42.60;;;4.20;99.90;;;;;;5028922;28;20039;-68
2022/01/25 06:02:38;;;;;;;73.20;43.03;;;4.40;99.90;;;;;;5028214;28;20052;-68
2022/01/25 06:05:05;;;;;;;73.90;43.07;;;4.40;99.90;;;;;;5028379;28;20470;-68
2022/01/25 06:07:30;;;;;;;66.77;39.07;;;4.30;99.90;;;;;;5028426;28;20026;-68
2022/01/25 06:09:56;;;;;;;64.87;39.27;;;4.40;99.90;;;;;;5014291;28;20120;-68
2022/01/25 06:12:21;;;;;;;74.13;46.00;;;4.40;99.90;;;;;;5033024;28;20021;-68
2022/01/25 06:14:47;;;;;;;84.70;51.43;;;;;;;;;;5032147;28;20501;-68
2022/01/25 06:17:13;;;;;;;72.80;43.10;;;4.50;99.90;;;;;;5049615;28;20107;-68
2022/01/25 06:19:39;;;;;;;78.10;46.63;;;;;;;;;;5051800;28;20033;-68
2022/01/25 06:22:05;;;;;;;71.03;41.37;;;4.40;99.90;;;;;;5046878;28;20366;-68
2022/01/25 06:24:30;;;;;;;60.90;36.57;;;4.40;99.90;;;;;;5014707;28;20079;-68
2022/01/25 06:26:56;;;;;;;78.33;42.77;;;4.50;99.90;;;;;;5032413;28;20021;-68
2022/01/25 06:29:22;;;;;;;78.07;45.53;;;4.40;99.90;;;;;;5032661;28;20049;-68
2022/01/25 06:31:47;;;;;;;60.17;36.47;;;4.40;99.90;;;;;;5014101;28;20115;-68
2022/01/25 06:34:15;;;;;;;76.07;42.93;;;4.50;99.90;;;;;;5032051;28;20454;-69
2022/01/25 06:36:40;;;;;;;69.70;41.30;;;4.40;99.90;;;;;;5031747;28;20093;-68
2022/01/25 06:39:06;;;;;;;68.77;39.90;;;;;;;;;;5032459;28;20029;-68
2022/01/25 06:41:36;;;;;;;67.20;41.07;;;;;;;;;;5032212;28;20022;-68
2022/01/25 06:44:01;;;;;;;73.03;41.50;;;4.70;99.90;;;;;;5014530;28;20026;-68
2022/01/25 06:46:27;;;;;;;76.60;44.40;;;4.20;99.90;;;;;;5031666;28;20026;-68
2022/01/25 06:48:53;;;;;;;67.20;40.63;;;;;;;;;;5031504;28;20095;-68
2022/01/25 06:51:18;;;;;;;83.47;46.80;;;4.30;99.90;;;;;;5032333;28;20095;-68
2022/01/25 06:53:46;;;;;;;78.83;43.63;;;4.40;99.90;;;;;;5031672;28;20129;-68
2022/01/25 06:56:12;;;;;;;78.77;46.17;;;4.40;99.90;;;;;;5032163;28;20490;-68
2022/01/25 06:58:40;;;;;;;88.47;47.00;;;3.90;99.90;;;;;;5031622;28;20025;-68
2022/01/25 07:01:06;;;;;;;68.77;39.67;;;4.30;99.90;;;;;;5031869;28;20052;-68
2022/01/25 07:03:32;;;;;;;84.47;46.83;;;;;;;;;;5031295;28;20408;-68
2022/01/25 07:05:58;;;;;;;78.27;45.20;;;4.40;99.90;;;;;;5031649;28;20037;-68
2022/01/25 07:08:23;;;;;;;74.60;41.83;;;4.40;99.90;;;;;;5031983;28;20032;-68
2022/01/25 07:10:49;;;;;;;63.57;37.57;;;4.50;99.90;;;;;;5031439;28;20033;-68
2022/01/25 07:13:15;;;;;;;76.53;43.23;;;;;;;;;;5013703;28;20041;-68
2022/01/25 07:15:40;;;;;;;72.47;41.93;;;4.50;99.90;;;;;;5031179;28;20827;-68
2022/01/25 07:18:06;;;;;;;76.10;43.23;;;4.40;99.90;;;;;;5031288;28;20029;-68
2022/01/25 07:20:31;;;;;;;59.87;35.00;;;4.50;99.90;;;;;;5030816;28;20055;-68
2022/01/25 07:22:57;;;;;;;71.23;39.10;;;4.40;99.90;;;;;;5031378;28;20022;-68
2022/01/25 07:25:25;;;;;;;80.27;46.17;;;;;;;;;;5031592;28;20037;-68
2022/01/25 07:27:50;;;;;;;74.67;41.10;;;4.50;99.90;;;;;;5031253;28;20412;-68
2022/01/25 07:30:16;;;;;;;82.37;45.70;;;;;;;;;;5031324;28;20132;-68
2022/01/25 07:32:42;;;;;;;77.03;43.20;;;4.40;99.90;;;;;;5030688;28;20057;-69
2022/01/25 07:35:08;;;;;;;75.60;43.30;;;4.30;99.90;;;;;;5031580;28;20068;-70
2022/01/25 07:37:34;;;;;;;66.80;39.43;;;4.40;99.90;;;;;;5013431;28;20053;-69
2022/01/25 07:39:59;;;;;;;69.87;40.73;;;4.10;99.90;;;;;;5031048;28;20410;-70
2022/01/25 07:42:27;;;;;;;72.53;43.07;;;;;;;;;;5013626;28;20030;-69
2022/01/25 07:44:54;;;;;;;67.73;39.53;;;;;;;;;;5031015;28;20436;-70
2022/01/25 07:47:20;;;;;;;71.00;42.10;;;;;;;;;;5030748;28;20022;-70
2022/01/25 07:49:47;;;;;;;70.13;39.27;;;4.40;99.90;;;;;;5029576;28;20099;-69
2022/01/25 07:52:12;;;;;;;78.47;43.20;;;4.50;99.90;;;;;;5034788;28;20024;-69
2022/01/25 07:54:38;;;;;;;77.33;41.93;;;4.50;99.90;;;;;;5018149;28;20053;-70
2022/01/25 07:57:04;;;;;;;76.83;43.63;;;;;;;;;;5032778;28;20021;-69
2022/01/25 07:59:29;;;;;;;78.00;44.07;;;4.40;99.90;;;;;;5036101;28;20037;-69
2022/01/25 08:01:55;;;;;;;59.33;34.43;;;;;;;;;;5011977;28;20051;-69
2022/01/25 08:04:21;;;;;;;68.70;40.43;;;;;;;;;;5030684;28;20034;-69
2022/01/25 08:06:48;;;;;;;64.63;39.57;;;;;;;;;;5030148;28;20391;-69
2022/01/25 08:09:14;;;;;;;76.63;43.60;;;4.50;99.90;;;;;;5030726;28;20506;-69
2022/01/25 08:11:40;;;;;;;66.83;38.97;;;4.40;99.90;;;;;;5011991;28;20030;-69
2022/01/25 08:14:41;;;;;;;67.53;39.93;;;4.40;99.90;;;;;;5029851;28;20152;-69
2022/01/25 08:16:58;;;;;;;85.57;47.97;;;4.50;99.90;;;;;;5027931;28;20770;-69
2022/01/25 08:19:23;;;;;;;73.37;41.87;;;4.60;99.90;;;;;;5031442;28;20018;-69
2022/01/25 08:21:49;;;;;;;74.93;42.83;;;;;;;;;;5030094;28;20554;-69
2022/01/25 08:24:18;;;;;;;75.00;43.23;;;4.60;99.90;;;;;;5029444;28;20033;-69
2022/01/25 08:26:45;;;;;;;82.90;45.77;;;4.50;99.90;;;;;;5011274;28;20509;-69
2022/01/25 08:29:11;;;;;;;85.40;48.70;;;;;;;;;;5020118;28;20021;-69
2022/01/25 08:31:38;;;;;;;90.17;51.83;;;4.50;99.90;;;;;;5044658;28;20032;-69
2022/01/25 08:34:05;;;;;;;87.97;48.20;;;;;;;;;;5010035;28;20048;-69
2022/01/25 08:36:30;;;;;;;78.73;43.73;;;4.60;99.90;;;;;;5010103;28;20032;-69
2022/01/25 08:38:56;;;;;;;79.67;43.97;;;4.40;99.90;;;;;;5021544;28;20037;-69
2022/01/25 08:41:22;;;;;;;87.93;52.57;;;4.10;99.90;;;;;;5030033;28;20032;-69
2022/01/25 08:43:48;;;;;;;81.13;44.10;;;4.00;99.90;;;;;;5028635;28;20069;-69
2022/01/25 08:46:15;;;;;;;78.63;45.57;;;4.30;99.90;;;;;;5034288;28;20048;-69
2022/01/25 08:48:41;;;;;;;63.50;36.47;;;4.20;99.90;;;;;;5038130;28;20359;-69
2022/01/25 08:51:07;;;;;;;72.57;41.37;;;4.40;99.90;;;;;;5029717;28;20028;-69
2022/01/25 08:53:33;;;;;;;64.80;38.53;;;4.30;99.90;;;;;;5029340;28;20033;-69
2022/01/25 08:55:59;;;;;;;77.80;44.23;;;4.60;99.90;;;;;;5029286;28;20025;-69
2022/01/25 08:58:26;;;;;;;81.33;45.93;;;4.30;99.90;;;;;;5031190;28;20032;-69
2022/01/25 09:00:51;;;;;;;64.30;37.03;;;4.60;99.90;;;;;;5029056;28;20025;-69
2022/01/25 09:03:17;;;;;;;77.23;44.17;;;;;;;;;;5034336;28;20060;-69
2022/01/25 09:05:43;;;;;;;72.53;40.80;;;4.60;99.90;;;;;;5028907;28;20474;-70
2022/01/25 09:08:10;;;;;;;69.00;40.20;;;;;;;;;;5028840;28;20482;-70
2022/01/25 09:10:36;;;;;;;69.67;41.87;;;;;;;;;;5028757;28;20463;-70
2022/01/25 09:13:02;;;;;;;62.87;37.40;;;4.70;99.90;;;;;;5028488;28;20057;-70
2022/01/25 09:15:31;;;;;;;64.43;36.93;;;;;;;;;;5029008;28;20490;-70
2022/01/25 09:17:56;;;;;;;65.43;38.60;;;;;;;;;;5029044;28;20429;-70
2022/01/25 09:20:22;;;;;;;66.33;38.57;;;;;;;;;;5029100;28;20041;-70
2022/01/25 09:22:48;;;;;;;70.23;38.97;;;4.70;99.90;;;;;;5028876;28;20032;-70
2022/01/25 09:25:13;;;;;;;74.87;42.33;;;4.60;99.90;;;;;;5029222;28;20036;-70
2022/01/25 09:27:40;;;;;;;71.07;41.03;;;4.50;99.90;;;;;;5028391;28;20335;-69
2022/01/25 09:30:06;;;;;;;72.40;41.10;;;4.60;99.90;;;;;;5029076;28;20458;-69
2022/01/25 09:32:32;;;;;;;70.13;41.53;;;4.70;99.90;;;;;;5011109;28;20159;-70
2022/01/25 09:34:58;;;;;;;64.50;38.77;;;;;;;;;;5028672;28;20120;-71
2022/01/25 09:37:24;;;;;;;75.80;43.07;;;;;;;;;;5029039;28;20101;-69
2022/01/25 09:39:49;;;;;;;83.80;47.80;;;4.60;99.90;;;;;;5028675;28;20029;-69
2022/01/25 09:42:16;;;;;;;73.57;43.63;;;4.60;99.90;;;;;;5028744;28;20044;-69
2022/01/25 09:44:42;;;;;;;79.27;45.57;;;;;;;;;;5027569;28;20021;-69
2022/01/25 09:47:09;;;;;;;79.87;44.63;;;4.60;99.90;;;;;;5029257;28;20120;-69
2022/01/25 09:49:35;;;;;;;80.87;46.73;;;4.50;99.90;;;;;;5028405;28;20053;-70
2022/01/25 09:52:03;;;;;;;76.80;44.17;;;4.50;99.90;;;;;;5028869;28;20120;-69
2022/01/25 09:54:31;;;;;;;79.07;44.53;;;4.60;99.90;;;;;;5030329;28;20490;-69
2022/01/25 09:56:57;;;;;;;75.80;44.90;;;4.60;99.90;;;;;;5037062;28;20028;-69
2022/01/25 09:59:23;;;;;;;77.23;41.93;;;4.50;99.90;;;;;;5042891;28;20037;-69
2022/01/25 10:01:49;;;;;;;75.77;45.13;;;4.90;99.90;;;;;;5028402;28;20387;-68
2022/01/25 10:04:30;;;;;;;72.23;40.47;;;4.60;99.90;;;;;;5028605;28;20021;-69
2022/01/25 10:06:57;;;;;;;81.07;46.47;;;;;;;;;;5028556;28;20025;-70
2022/01/25 10:09:24;;;;;;;81.73;46.87;;;4.70;99.90;;;;;;5028370;28;20124;-70
2022/01/25 10:11:50;;;;;;;83.40;47.03;;;;;;;;;;5027877;28;20116;-69
2022/01/25 10:14:17;;;;;;;78.10;43.53;;;4.50;99.90;;;;;;5028714;28;20464;-71
2022/01/25 10:16:43;;;;;;;82.17;47.20;;;4.60;99.90;;;;;;5027799;28;20151;-70
2022/01/25 10:19:12;;;;;;;86.40;50.37;;;4.50;99.90;;;;;;5028864;28;20493;-70
2022/01/25 10:21:42;;;;;;;88.43;47.07;;;4.60;99.90;;;;;;5028032;28;20026;-70
2022/01/25 10:24:20;;;;;;;79.77;45.30;;;4.70;99.90;;;;;;5010941;28;20051;-70
2022/01/25 10:26:58;;;;;;;73.40;42.03;;;4.40;99.90;;;;;;5027400;28;20445;-70
2022/01/25 10:29:25;;;;;;;71.97;43.40;;;4.70;99.90;;;;;;5028608;28;20253;-70
2022/01/25 10:31:56;;;;;;;75.63;43.40;;;4.90;99.90;;;;;;5028299;28;20049;-69
2022/01/25 10:34:30;;;;;;;74.23;42.30;;;4.90;99.90;;;;;;5008984;28;20034;-70
2022/01/25 10:36:57;;;;;;;73.30;42.40;;;4.80;99.90;;;;;;5008354;28;20459;-70
2022/01/25 10:39:28;;;;;;;77.57;44.10;;;4.80;99.90;;;;;;5009041;28;20030;-70
2022/01/25 10:42:10;;;;;;;76.13;43.37;;;4.80;99.90;;;;;;5005302;28;20022;-70
2022/01/25 10:44:47;;;;;;;73.90;43.27;;;4.90;99.90;;;;;;5010308;28;20021;-70
2022/01/25 10:47:13;;;;;;;71.60;41.80;;;4.80;99.90;;;;;;5028623;28;20394;-70
2022/01/25 10:49:46;;;;;;;73.03;39.93;;;5.00;99.90;;;;;;5029942;28;20022;-69
2022/01/25 10:52:12;;;;;;;77.18;42.97;;;4.90;99.90;;;;;;5022714;28;20036;-69
2022/01/25 10:54:40;;;;;;;83.70;47.47;;;4.90;99.90;;;;;;5033195;28;20045;-69
2022/01/25 10:57:20;;;;;;;76.43;42.37;;;5.10;99.90;;;;;;5031727;28;20068;-69
2022/01/25 10:59:57;;;;;;;68.37;40.30;;;4.80;99.90;;;;;;5031712;28;20237;-69
2022/01/25 11:02:23;;;;;;;67.03;38.00;;;4.80;99.90;;;;;;5031296;28;20033;-69
2022/01/25 11:04:48;;;;;;;72.60;42.03;;;5.10;99.90;;;;;;5031774;28;20021;-69
2022/01/25 11:07:14;;;;;;;74.63;43.20;;;;;;;;;;5037004;28;20025;-70
2022/01/25 11:09:46;;;;;;;66.97;39.83;;;4.90;99.90;;;;;;5038098;28;20021;-69
2022/01/25 11:12:18;;;;;;;63.10;38.97;;;5.00;99.90;;;;;;5034111;28;20037;-69
2022/01/25 11:14:53;;;;;;;76.40;44.30;;;4.90;99.90;;;;;;5019359;28;20049;-69
2022/01/25 11:17:23;;;;;;;77.90;43.67;;;4.90;99.90;;;;;;5034920;28;20055;-69
2022/01/25 11:19:49;;;;;;;82.57;45.30;;;4.90;99.90;;;;;;5030762;28;20032;-69
2022/01/25 11:22:19;;;;;;;78.00;43.00;;;4.90;99.90;;;;;;5013325;28;20104;-69
2022/01/25 11:24:51;;;;;;;75.00;39.40;;;5.00;99.90;;;;;;5030593;28;20370;-69
2022/01/25 11:27:18;;;;;;;69.03;39.97;;;4.90;99.90;;;;;;5033279;28;20116;-69
2022/01/25 11:29:45;;;;;;;81.57;44.27;;;4.90;99.90;;;;;;5012570;28;20036;-69
2022/01/25 11:32:15;;;;;;;78.97;43.20;;;4.90;99.90;;;;;;5026439;28;20021;-70
2022/01/25 11:34:45;;;;;;;63.13;38.03;;;4.90;99.90;;;;;;5040046;28;20037;-69
2022/01/25 11:37:10;;;;;;;62.87;35.70;;;4.90;99.90;;;;;;5038979;28;20474;-69
2022/01/25 11:39:42;;;;;;;68.50;38.40;;;4.90;99.90;;;;;;5047390;28;20020;-69
2022/01/25 11:42:09;;;;;;;75.30;41.57;;;4.90;99.90;;;;;;5051059;28;20020;-69
2022/01/25 11:44:45;;;;;;;71.60;43.83;;;4.90;99.90;;;;;;5041407;28;20036;-69
2022/01/25 11:47:16;;;;;;;64.83;36.87;;;5.00;99.90;;;;;;5031164;28;20029;-69
2022/01/25 11:49:52;;;;;;;74.83;41.23;;;4.60;99.90;;;;;;5030874;28;20025;-70
2022/01/25 11:52:18;;;;;;;76.10;43.17;;;;;;;;;;5026767;28;20113;-69
2022/01/25 11:54:44;;;;;;;67.27;39.83;;;4.90;99.90;;;;;;5029791;28;20461;-69
2022/01/25 11:57:12;;;;;;;65.63;36.37;;;4.90;99.90;;;;;;5030945;28;20021;-69
2022/01/25 11:59:38;;;;;;;68.63;38.73;;;4.90;99.90;;;;;;5028263;28;20528;-68
2022/01/25 12:02:04;;;;;;;77.47;43.13;;;4.90;99.90;;;;;;5030559;28;20147;-68
2022/01/25 12:04:30;;;;;;;75.87;43.07;;;3.50;99.90;;;;;;5030249;28;20044;-68
2022/01/25 12:07:02;;;;;;;66.17;37.97;;;4.90;99.90;;;;;;5029456;28;20064;-68
2022/01/25 12:09:42;;;;;;;69.53;38.77;;;4.90;99.90;;;;;;5012633;28;20514;-69
2022/01/25 12:12:12;;;;;;;70.20;42.03;;;5.10;99.90;;;;;;5012703;28;20025;-69
2022/01/25 12:14:50;;;;;;;71.87;40.63;;;5.00;99.90;;;;;;5035040;28;20052;-69
2022/01/25 12:17:19;;;;;;;71.03;39.90;;;4.90;99.90;;;;;;4999001;28;20029;-69
2022/01/25 12:19:58;;;;;;;68.07;39.37;;;5.10;99.90;;;;;;5011804;28;20044;-69
2022/01/25 12:22:27;;;;;;;65.07;36.60;;;5.00;99.90;;;;;;5030376;28;20021;-69
2022/01/25 12:25:34;;;;;;;64.67;37.63;;;5.00;99.90;;;;;;5029898;28;20035;-68
2022/01/25 12:27:54;;;;;;;78.93;44.23;;;;;;;;;;5031789;28;20386;-69
2022/01/25 12:30:26;;;;;;;71.57;41.63;;;4.80;99.90;;;;;;5030040;28;20048;-69
2022/01/25 12:33:02;;;;;;;82.23;45.80;;;4.80;99.90;;;;;;5029504;28;20021;-69
2022/01/25 12:35:47;;;;;;;74.23;39.30;;;5.00;99.90;;;;;;5029743;28;20442;-69
2022/01/25 12:38:38;;;;;;;73.00;40.30;;;4.80;99.90;;;;;;5029891;28;20056;-69
2022/01/25 12:41:22;;;;;;;64.97;36.70;;;4.90;99.90;;;;;;5030031;28;20112;-69
2022/01/25 12:43:55;;;;;;;65.50;34.40;;;4.80;99.90;;;;;;5029513;28;20029;-69
2022/01/25 12:46:24;;;;;;;62.45;37.47;;;4.90;99.90;;;;;;5029236;28;20087;-69
2022/01/25 12:49:07;;;;;;;71.53;37.70;;;5.00;99.90;;;;;;5029150;28;20030;-69
2022/01/25 12:51:36;;;;;;;79.50;44.90;;;5.10;99.90;;;;;;5029095;28;20029;-69
2022/01/25 12:54:05;;;;;;;85.30;45.83;;;5.00;99.90;;;;;;5029660;28;20030;-69
2022/01/25 12:56:43;;;;;;;79.50;42.90;;;4.80;99.90;;;;;;5029333;28;20025;-69
2022/01/25 12:59:12;;;;;;;75.37;40.90;;;4.80;99.90;;;;;;5011983;28;20036;-69
2022/01/25 13:01:39;;;;;;;72.57;40.27;;;4.90;99.90;;;;;;5026320;28;20025;-69
2022/01/25 13:04:06;;;;;;;70.63;38.67;;;4.70;99.90;;;;;;5032397;28;20030;-69
2022/01/25 13:06:33;;;;;;;63.37;35.53;;;4.90;99.90;;;;;;5028323;28;20029;-69
2022/01/25 13:09:10;;;;;;;74.60;40.23;;;5.10;99.90;;;;;;5029256;28;20029;-69
2022/01/25 13:11:48;;;;;;;76.17;41.63;;;4.60;99.90;;;;;;5028942;28;20022;-69
2022/01/25 13:14:29;;;;;;;72.40;40.47;;;5.00;99.90;;;;;;5029191;28;20257;-68
2022/01/25 13:16:58;;;;;;;75.50;38.90;;;5.10;99.90;;;;;;5033411;28;20029;-68
2022/01/25 13:19:24;;;;;;;73.00;41.70;;;;;;;;;;5033483;28;20091;-69
2022/01/25 13:21:52;;;;;;;69.67;40.03;;;5.00;99.90;;;;;;5028258;28;20025;-68
2022/01/25 13:24:20;;;;;;;65.10;35.63;;;3.70;99.90;;;;;;5029154;28;20492;-68
2022/01/25 13:26:50;;;;;;;63.07;34.90;;;5.00;99.90;;;;;;5028592;28;20517;-68
2022/01/25 13:32:10;;;;;;;;;;;4.90;99.90;;;;;;5028331;28;20048;-68
2022/01/25 13:34:37;;;;;;;66.13;36.93;;;;;;;;;;5022565;28;19921;-68
2022/01/25 13:37:03;;;;;;;81.80;45.37;;;;;;;;;;4996612;28;20061;-68
2022/01/25 13:39:29;;;;;;;77.20;42.63;;;4.90;99.90;;;;;;5011561;28;20056;-68
2022/01/25 13:42:08;;;;;;;72.63;41.40;;;4.80;99.90;;;;;;4998659;28;20774;-68
2022/01/25 13:47:19;;;;;;;;;;;5.70;99.90;;;;;;5022793;28;20049;-68
2022/01/25 13:49:47;;;;;;;84.17;44.63;;;;;;;;;;5024204;28;20307;-68
2022/01/25 13:52:12;;;;;;;77.50;42.57;;;;;;;;;;5028198;28;20021;-68
2022/01/25 13:54:38;;;;;;;70.50;40.83;;;5.00;99.90;;;;;;5027850;28;20084;-68
2022/01/25 13:57:13;;;;;;;74.33;42.37;;;4.80;99.90;;;;;;5031108;28;20037;-68
2022/01/25 13:59:39;;;;;;;77.63;42.70;;;4.80;99.90;;;;;;5038603;28;20448;-68
2022/01/25 14:02:05;;;;;;;70.00;38.43;;;;;;;;;;5037114;28;20017;-68
2022/01/25 14:04:33;;;;;;;74.33;42.23;;;5.00;99.90;;;;;;5027683;28;20087;-68
2022/01/25 14:07:00;;;;;;;73.07;40.07;;;5.00;99.90;;;;;;5028164;28;20596;-68
2022/01/25 14:09:34;;;;;;;69.13;38.33;;;4.80;99.90;;;;;;5042533;28;20343;-68
2022/01/25 14:25:42;;;;;;;63.83;36.63;;;4.80;99.90;;;;;;4948091;29;20481;-68
2022/01/25 14:28:14;;;;;;;71.37;38.23;;;5.00;99.90;;;;;;4948332;29;20047;-68
2022/01/25 14:30:43;;;;;;;69.20;40.20;;;4.80;99.90;;;;;;4963066;28;20039;-68
2022/01/25 14:33:14;;;;;;;69.40;39.10;;;4.90;99.90;;;;;;4970621;28;20181;-68
2022/01/25 14:35:50;;;;;;;59.77;34.73;;;5.00;99.90;;;;;;4970912;28;20069;-68
2022/01/25 14:38:21;;;;;;;64.37;38.27;;;4.90;99.90;;;;;;4975411;28;20066;-68
2022/01/25 14:41:08;;;;;;;61.33;34.70;;;4.90;99.90;;;;;;4980795;28;20031;-68
2022/01/25 14:43:47;;;;;;;50.87;27.13;;;4.90;99.90;;;;;;4973268;28;20030;-67
2022/01/25 14:46:23;;;;;;;63.23;36.60;;;4.80;99.90;;;;;;4970863;28;20094;-68
2022/01/25 14:49:07;;;;;;;65.93;35.73;;;4.90;99.90;;;;;;4970514;28;20030;-68
2022/01/25 14:51:38;;;;;;;66.07;36.35;;;5.30;99.90;;;;;;4969542;28;20026;-69
2022/01/25 14:54:06;;;;;;;66.83;38.20;;;4.70;99.90;;;;;;4970813;28;20085;-68
2022/01/25 14:56:34;;;;;;;60.97;35.93;;;4.80;99.90;;;;;;4970637;28;20027;-68
2022/01/25 15:01:52;;;;;;;65.73;38.87;;;4.80;99.90;;;;;;5031345;28;20021;-68
2022/01/25 15:04:18;;;;;;;70.13;37.77;;;;;;;;;;5031431;28;20029;-68